Time;durP1;ratioP1;P1;durP2;ratioP2;P2;SDS_P1;SDS_P2;PMS_P1;PMS_P2;Temp;Humidity;BMP_temperature;BMP_pressure;BME280_temperature;BME280_humidity;BME280_pressure;Samples;Min_cycle;Max_cycle;Signal;HPM_P1;HPM_P2
2023/06/01 00:00:09;;;;;;;;;;;;;;;;;;5035584;28;19928;-63
2023/06/01 00:02:35;;;;;;;;;;;;;;;;;;5017673;28;20010;-64
2023/06/01 00:05:01;;;;;;;;;;;;;;;;;;5017584;28;20627;-63
2023/06/01 00:07:29;;;;;;;;;;;;;;;;;;5035291;28;19932;-63
2023/06/01 00:09:55;;;;;;;;;;;;;;;;;;5035507;28;19991;-63
2023/06/01 00:12:21;;;;;;;;;;;;;;;;;;5035466;28;19968;-64
2023/06/01 00:14:47;;;;;;;;;;;;;;;;;;5035338;28;20020;-64
2023/06/01 00:17:13;;;;;;;;;;;;;;;;;;5035351;28;19932;-64
2023/06/01 00:19:39;;;;;;;;;;;;;;;;;;5034496;28;20509;-64
2023/06/01 00:22:07;;;;;;;;;;;;;;;;;;5035316;28;20340;-64
2023/06/01 00:24:32;;;;;;;;;;;;;;;;;;5035477;28;19931;-65
2023/06/01 00:26:58;;;;;;;;;;;;;;;;;;5034949;28;20301;-64
2023/06/01 00:29:24;;;;;;;;;;;;;;;;;;5035297;28;19996;-64
2023/06/01 00:31:50;;;;;;;;;;;;;;;;;;5017107;28;19925;-64
2023/06/01 00:34:16;;;;;;;;;;;;;;;;;;5035138;28;20371;-64
2023/06/01 00:36:42;;;;;;;;;;;;;;;;;;5034725;28;19979;-62
2023/06/01 00:39:08;;;;;;;;;;;;;;;;;;5034684;28;19925;-63
2023/06/01 00:41:34;;;;;;;;;;;;;;;;;;5034700;28;19971;-63
2023/06/01 00:44:00;;;;;;;;;;;;;;;;;;5035098;28;19921;-64
2023/06/01 00:46:25;;;;;;;;;;;;;;;;;;5034860;28;19928;-64
2023/06/01 00:48:51;;;;;;;;;;;;;;;;;;5034813;28;19921;-64
2023/06/01 00:51:17;;;;;;;;;;;;;;;;;;5034652;28;19925;-63
2023/06/01 00:53:43;;;;;;;;;;;;;;;;;;5016925;28;19921;-64
2023/06/01 00:56:11;;;;;;;;;;;;;;;;;;5017004;28;20591;-63
2023/06/01 00:58:37;;;;;;;;;;;;;;;;;;5034438;28;19968;-63
2023/06/01 01:01:03;;;;;;;;;;;;;;;;;;5000355;28;19963;-63
2023/06/01 01:03:31;;;;;;;;;;;;;;;;;;5034535;28;20000;-63
2023/06/01 01:05:57;;;;;;;;;;;;;;;;;;5034647;28;20040;-64
2023/06/01 01:08:23;;;;;;;;;;;;;;;;;;5034432;28;20345;-63
2023/06/01 01:10:49;;;;;;;;;;;;;;;;;;5034463;28;19921;-64
2023/06/01 01:13:15;;;;;;;;;;;;;;;;;;5016356;28;19921;-64
2023/06/01 01:15:41;;;;;;;;;;;;;;;;;;5034325;28;20449;-63
2023/06/01 01:18:07;;;;;;;;;;;;;;;;;;5034021;28;20287;-63
2023/06/01 01:20:33;;;;;;;;;;;;;;;;;;5033962;28;19925;-64
2023/06/01 01:22:58;;;;;;;;;;;;;;;;;;5033854;28;19921;-64
2023/06/01 01:25:24;;;;;;;;;;;;;;;;;;5033854;28;19987;-64
2023/06/01 01:27:51;;;;;;;;;;;;;;;;;;5033720;28;20005;-64
2023/06/01 01:30:17;;;;;;;;;;;;;;;;;;5033921;28;19921;-64
2023/06/01 01:32:43;;;;;;;;;;;;;;;;;;5034116;28;19978;-63
2023/06/01 01:35:09;;;;;;;;;;;;;;;;;;5033633;28;20322;-63
2023/06/01 01:37:35;;;;;;;;;;;;;;;;;;5015875;28;19927;-64
2023/06/01 01:40:01;;;;;;;;;;;;;;;;;;5033600;28;20270;-64
2023/06/01 01:42:27;;;;;;;;;;;;;;;;;;5033817;28;19925;-63
2023/06/01 01:44:53;;;;;;;;;;;;;;;;;;5015876;28;19929;-64
2023/06/01 01:47:18;;;;;;;;;;;;;;;;;;5033555;28;20398;-64
2023/06/01 01:49:44;;;;;;;;;;;;;;;;;;5033674;28;20573;-64
2023/06/01 01:52:10;;;;;;;;;;;;;;;;;;5033637;28;19925;-64
2023/06/01 01:54:36;;;;;;;;;;;;;;;;;;5033101;28;20019;-64
2023/06/01 01:57:02;;;;;;;;;;;;;;;;;;5015113;28;19925;-63
2023/06/01 01:59:28;;;;;;;;;;;;;;;;;;5033007;28;19932;-64
2023/06/01 02:01:54;;;;;;;;;;;;;;;;;;5032542;28;19931;-64
2023/06/01 02:04:20;;;;;;;;;;;;;;;;;;5032700;28;19925;-64
2023/06/01 02:06:46;;;;;;;;;;;;;;;;;;5032501;28;20027;-64
2023/06/01 02:09:12;;;;;;;;;;;;;;;;;;5031582;28;20333;-63
2023/06/01 02:11:37;;;;;;;;;;;;;;;;;;5014630;28;20007;-63
2023/06/01 02:14:04;;;;;;;;;;;;;;;;;;5032710;28;19924;-64
2023/06/01 02:16:30;;;;;;;;;;;;;;;;;;5014941;28;20354;-63
2023/06/01 02:18:57;;;;;;;;;;;;;;;;;;5032242;28;19979;-63
2023/06/01 02:21:23;;;;;;;;;;;;;;;;;;5015050;28;19959;-64
2023/06/01 02:23:49;;;;;;;;;;;;;;;;;;5032817;28;20626;-64
2023/06/01 02:26:16;;;;;;;;;;;;;;;;;;5033146;28;19939;-64
2023/06/01 02:28:42;;;;;;;;;;;;;;;;;;5032835;28;20289;-64
2023/06/01 02:31:08;;;;;;;;;;;;;;;;;;5032988;28;19932;-64
2023/06/01 02:33:34;;;;;;;;;;;;;;;;;;5032886;28;20016;-64
2023/06/01 02:36:00;;;;;;;;;;;;;;;;;;5032602;28;20302;-64
2023/06/01 02:38:26;;;;;;;;;;;;;;;;;;5032504;28;19928;-64
2023/06/01 02:40:52;;;;;;;;;;;;;;;;;;5032775;28;19969;-64
2023/06/01 02:43:18;;;;;;;;;;;;;;;;;;5032581;28;19927;-64
2023/06/01 02:45:44;;;;;;;;;;;;;;;;;;5032741;28;20569;-64
2023/06/01 02:48:10;;;;;;;;;;;;;;;;;;5032571;28;20457;-63
2023/06/01 02:50:36;;;;;;;;;;;;;;;;;;5032719;28;19921;-63
2023/06/01 02:53:02;;;;;;;;;;;;;;;;;;5032507;28;19952;-64
2023/06/01 02:55:28;;;;;;;;;;;;;;;;;;5032464;28;19928;-64
2023/06/01 02:57:54;;;;;;;;;;;;;;;;;;5032223;28;20276;-64
2023/06/01 03:00:20;;;;;;;;;;;;;;;;;;5032276;28;19925;-64
2023/06/01 03:02:46;;;;;;;;;;;;;;;;;;5032595;28;19921;-64
2023/06/01 03:05:16;;;;;;;;;;;;;;;;;;5032240;28;19932;-64
2023/06/01 03:07:42;;;;;;;;;;;;;;;;;;5032188;28;20492;-61
2023/06/01 03:10:08;;;;;;;;;;;;;;;;;;5031696;28;19929;-61
2023/06/01 03:12:34;;;;;;;;;;;;;;;;;;5031575;28;19931;-60
2023/06/01 03:15:00;;;;;;;;;;;;;;;;;;5031635;28;20012;-61
2023/06/01 03:17:26;;;;;;;;;;;;;;;;;;5031683;28;19928;-60
2023/06/01 03:19:52;;;;;;;;;;;;;;;;;;5031824;28;19936;-60
2023/06/01 03:22:18;;;;;;;;;;;;;;;;;;5014219;28;20367;-60
2023/06/01 03:24:44;;;;;;;;;;;;;;;;;;5032097;28;19929;-60
2023/06/01 03:27:11;;;;;;;;;;;;;;;;;;5031881;28;19975;-61
2023/06/01 03:29:37;;;;;;;;;;;;;;;;;;5031359;28;20239;-63
2023/06/01 03:32:02;;;;;;;;;;;;;;;;;;5031341;28;19932;-63
2023/06/01 03:34:29;;;;;;;;;;;;;;;;;;5030916;28;19925;-63
2023/06/01 03:36:56;;;;;;;;;;;;;;;;;;5030897;28;19975;-63
2023/06/01 03:39:22;;;;;;;;;;;;;;;;;;5030876;28;19929;-63
2023/06/01 03:41:48;;;;;;;;;;;;;;;;;;5030429;28;20350;-63
2023/06/01 03:44:14;;;;;;;;;;;;;;;;;;5030869;28;19922;-63
2023/06/01 03:46:40;;;;;;;;;;;;;;;;;;5031378;28;19967;-62
2023/06/01 03:49:06;;;;;;;;;;;;;;;;;;5031461;28;19928;-63
2023/06/01 03:51:31;;;;;;;;;;;;;;;;;;5014203;28;19925;-61
2023/06/01 03:53:57;;;;;;;;;;;;;;;;;;5031908;28;19928;-62
2023/06/01 03:56:23;;;;;;;;;;;;;;;;;;5031581;28;19963;-62
2023/06/01 03:58:49;;;;;;;;;;;;;;;;;;5031699;28;20369;-62
2023/06/01 04:01:16;;;;;;;;;;;;;;;;;;5031546;28;20329;-62
2023/06/01 04:03:43;;;;;;;;;;;;;;;;;;5031692;28;19972;-62
2023/06/01 04:06:12;;;;;;;;;;;;;;;;;;5014071;28;19994;-62
2023/06/01 04:08:37;;;;;;;;;;;;;;;;;;5031730;28;19952;-62
2023/06/01 04:11:03;;;;;;;;;;;;;;;;;;5031628;28;20294;-62
2023/06/01 04:13:29;;;;;;;;;;;;;;;;;;5031678;28;20471;-62
2023/06/01 04:15:55;;;;;;;;;;;;;;;;;;5031238;28;19925;-62
2023/06/01 04:18:21;;;;;;;;;;;;;;;;;;5031121;28;19925;-62
2023/06/01 04:20:48;;;;;;;;;;;;;;;;;;5031453;28;20389;-62
2023/06/01 04:23:14;;;;;;;;;;;;;;;;;;5031148;28;20436;-62
2023/06/01 04:25:44;;;;;;;;;;;;;;;;;;5034549;28;19921;-62
2023/06/01 04:28:10;;;;;;;;;;;;;;;;;;5034411;28;19979;-62
2023/06/01 04:30:36;;;;;;;;;;;;;;;;;;5034354;28;19968;-61
2023/06/01 04:33:02;;;;;;;;;;;;;;;;;;5035040;28;19925;-62
2023/06/01 04:35:28;;;;;;;;;;;;;;;;;;5034450;28;19952;-62
2023/06/01 04:37:54;;;;;;;;;;;;;;;;;;5034787;28;19921;-62
2023/06/01 04:40:20;;;;;;;;;;;;;;;;;;5034902;28;19929;-62
2023/06/01 04:42:55;;;;;;;;;;;;;;;;;;5034979;28;19960;-62
2023/06/01 04:45:21;;;;;;;;;;;;;;;;;;5034946;28;19925;-62
2023/06/01 04:47:47;;;;;;;;;;;;;;;;;;5034923;28;19921;-62
2023/06/01 04:50:15;;;;;;;;;;;;;;;;;;5016889;28;19952;-61
2023/06/01 04:52:41;;;;;;;;;;;;;;;;;;5034750;28;19943;-62
2023/06/01 04:55:07;;;;;;;;;;;;;;;;;;5034800;28;20374;-62
2023/06/01 04:57:34;;;;;;;;;;;;;;;;;;5034713;28;20016;-62
2023/06/01 05:00:00;;;;;;;;;;;;;;;;;;5016622;28;19925;-62
2023/06/01 05:02:26;;;;;;;;;;;;;;;;;;5034455;28;20438;-62
2023/06/01 05:04:52;;;;;;;;;;;;;;;;;;5034308;28;19921;-63
2023/06/01 05:07:18;;;;;;;;;;;;;;;;;;5034391;28;19921;-62
2023/06/01 05:09:44;;;;;;;;;;;;;;;;;;5034385;28;19959;-62
2023/06/01 05:12:10;;;;;;;;;;;;;;;;;;5034239;28;19929;-61
2023/06/01 05:14:36;;;;;;;;;;;;;;;;;;5034268;28;20271;-62
2023/06/01 05:17:01;;;;;;;;;;;;;;;;;;5034176;28;20004;-62
2023/06/01 05:19:29;;;;;;;;;;;;;;;;;;5034399;28;19929;-62
2023/06/01 05:21:55;;;;;;;;;;;;;;;;;;5034146;28;19975;-62
2023/06/01 05:24:21;;;;;;;;;;;;;;;;;;5034135;28;19921;-62
2023/06/01 05:26:46;;;;;;;;;;;;;;;;;;5016192;28;19999;-62
2023/06/01 05:29:12;;;;;;;;;;;;;;;;;;5033927;28;20466;-62
2023/06/01 05:31:38;;;;;;;;;;;;;;;;;;5033995;28;19921;-62
2023/06/01 05:34:04;;;;;;;;;;;;;;;;;;5033783;28;19948;-63
2023/06/01 05:36:31;;;;;;;;;;;;;;;;;;5032553;28;20302;-63
2023/06/01 05:38:57;;;;;;;;;;;;;;;;;;5033595;28;19925;-63
2023/06/01 05:41:23;;;;;;;;;;;;;;;;;;5015952;28;20513;-63
2023/06/01 05:43:50;;;;;;;;;;;;;;;;;;5033438;28;19936;-63
2023/06/01 05:46:16;;;;;;;;;;;;;;;;;;5033909;28;19925;-62
2023/06/01 05:48:42;;;;;;;;;;;;;;;;;;5033721;28;19982;-59
2023/06/01 05:51:08;;;;;;;;;;;;;;;;;;5033604;28;19921;-59
2023/06/01 05:53:34;;;;;;;;;;;;;;;;;;5033438;28;19928;-59
2023/06/01 05:56:00;;;;;;;;;;;;;;;;;;5015545;28;19967;-59
2023/06/01 05:58:26;;;;;;;;;;;;;;;;;;5015355;28;19929;-59
2023/06/01 06:00:52;;;;;;;;;;;;;;;;;;5033514;28;19920;-59
2023/06/01 06:03:18;;;;;;;;;;;;;;;;;;5033149;28;20373;-59
2023/06/01 06:05:44;;;;;;;;;;;;;;;;;;5033523;28;19971;-59
2023/06/01 06:08:10;;;;;;;;;;;;;;;;;;5033176;28;19924;-59
2023/06/01 06:10:36;;;;;;;;;;;;;;;;;;5033404;28;19928;-59
2023/06/01 06:13:02;;;;;;;;;;;;;;;;;;5033235;28;20609;-60
2023/06/01 06:15:29;;;;;;;;;;;;;;;;;;5033208;28;19925;-60
2023/06/01 06:17:55;;;;;;;;;;;;;;;;;;5015070;28;19921;-60
2023/06/01 06:20:22;;;;;;;;;;;;;;;;;;5015127;28;19978;-60
2023/06/01 06:22:48;;;;;;;;;;;;;;;;;;5015005;28;19921;-60
2023/06/01 06:25:13;;;;;;;;;;;;;;;;;;5033124;28;19921;-60
2023/06/01 06:27:39;;;;;;;;;;;;;;;;;;5032595;28;20301;-60
2023/06/01 06:30:06;;;;;;;;;;;;;;;;;;5032992;28;20023;-60
2023/06/01 06:32:32;;;;;;;;;;;;;;;;;;5014941;28;19963;-60
2023/06/01 06:34:58;;;;;;;;;;;;;;;;;;5032580;28;20367;-60
2023/06/01 06:37:24;;;;;;;;;;;;;;;;;;5032635;28;20283;-60
2023/06/01 06:39:50;;;;;;;;;;;;;;;;;;5032644;28;20341;-60
2023/06/01 06:42:16;;;;;;;;;;;;;;;;;;5031939;28;19920;-60
2023/06/01 06:44:42;;;;;;;;;;;;;;;;;;5032607;28;19936;-59
2023/06/01 06:47:08;;;;;;;;;;;;;;;;;;5032460;28;20378;-59
2023/06/01 06:49:34;;;;;;;;;;;;;;;;;;5032532;28;19936;-60
2023/06/01 06:52:00;;;;;;;;;;;;;;;;;;5014626;28;19921;-60
2023/06/01 06:54:26;;;;;;;;;;;;;;;;;;5032242;28;19932;-60
2023/06/01 06:56:52;;;;;;;;;;;;;;;;;;5014815;28;19925;-60
2023/06/01 06:59:17;;;;;;;;;;;;;;;;;;5032272;28;19925;-60
2023/06/01 07:01:43;;;;;;;;;;;;;;;;;;5032387;28;19921;-59
2023/06/01 07:04:09;;;;;;;;;;;;;;;;;;5032174;28;19925;-60
2023/06/01 07:06:36;;;;;;;;;;;;;;;;;;5032271;28;19920;-59
2023/06/01 07:09:02;;;;;;;;;;;;;;;;;;5032264;28;19944;-59
2023/06/01 07:11:29;;;;;;;;;;;;;;;;;;5032331;28;19935;-60
2023/06/01 07:13:57;;;;;;;;;;;;;;;;;;5032061;28;19921;-60
2023/06/01 07:16:23;;;;;;;;;;;;;;;;;;5032232;28;19971;-60
2023/06/01 07:18:49;;;;;;;;;;;;;;;;;;5031519;28;20634;-60
2023/06/01 07:21:14;;;;;;;;;;;;;;;;;;5031665;28;19925;-60
2023/06/01 07:23:40;;;;;;;;;;;;;;;;;;5031052;28;19968;-60
2023/06/01 07:26:06;;;;;;;;;;;;;;;;;;5031586;28;19921;-60
2023/06/01 07:28:32;;;;;;;;;;;;;;;;;;5031739;28;20797;-60
2023/06/01 07:30:58;;;;;;;;;;;;;;;;;;5031639;28;20310;-60
2023/06/01 07:33:25;;;;;;;;;;;;;;;;;;5031347;28;19921;-60
2023/06/01 07:35:52;;;;;;;;;;;;;;;;;;5030730;28;19929;-60
2023/06/01 07:38:19;;;;;;;;;;;;;;;;;;5031060;28;20282;-60
2023/06/01 07:40:45;;;;;;;;;;;;;;;;;;5031511;28;19921;-60
2023/06/01 07:43:11;;;;;;;;;;;;;;;;;;5031438;28;19928;-60
2023/06/01 07:45:37;;;;;;;;;;;;;;;;;;5031391;28;19997;-60
2023/06/01 07:48:03;;;;;;;;;;;;;;;;;;5031747;28;19936;-60
2023/06/01 07:50:30;;;;;;;;;;;;;;;;;;5031530;28;20255;-60
2023/06/01 07:52:57;;;;;;;;;;;;;;;;;;5014120;28;20328;-60
2023/06/01 07:55:23;;;;;;;;;;;;;;;;;;5031689;28;19928;-60
2023/06/01 07:57:49;;;;;;;;;;;;;;;;;;5031795;28;20367;-60
2023/06/01 08:00:17;;;;;;;;;;;;;;;;;;5035439;28;19975;-59
2023/06/01 08:02:43;;;;;;;;;;;;;;;;;;5035422;28;20689;-59
2023/06/01 08:05:09;;;;;;;;;;;;;;;;;;5035596;28;19925;-59
2023/06/01 08:07:37;;;;;;;;;;;;;;;;;;5035673;28;19921;-60
2023/06/01 08:10:05;;;;;;;;;;;;;;;;;;5035535;28;19971;-60
2023/06/01 08:12:31;;;;;;;;;;;;;;;;;;5035557;28;19921;-60
2023/06/01 08:14:57;;;;;;;;;;;;;;;;;;5035419;28;19928;-60
2023/06/01 08:17:23;;;;;;;;;;;;;;;;;;5035510;28;19979;-59
2023/06/01 08:19:49;;;;;;;;;;;;;;;;;;5017193;28;19932;-60
2023/06/01 08:22:15;;;;;;;;;;;;;;;;;;5035019;28;20531;-60
2023/06/01 08:24:42;;;;;;;;;;;;;;;;;;5035178;28;19970;-60
2023/06/01 08:27:08;;;;;;;;;;;;;;;;;;5035239;28;20294;-60
2023/06/01 08:29:34;;;;;;;;;;;;;;;;;;5034951;28;19921;-60
2023/06/01 08:32:00;;;;;;;;;;;;;;;;;;5034926;28;19925;-61
2023/06/01 08:34:26;;;;;;;;;;;;;;;;;;5034669;28;20346;-60
2023/06/01 08:36:51;;;;;;;;;;;;;;;;;;5034804;28;19932;-60
2023/06/01 08:39:17;;;;;;;;;;;;;;;;;;5016994;28;19925;-60
2023/06/01 08:41:43;;;;;;;;;;;;;;;;;;5017186;28;19932;-60
2023/06/01 08:44:09;;;;;;;;;;;;;;;;;;5034885;28;20404;-63
2023/06/01 08:46:35;;;;;;;;;;;;;;;;;;5016852;28;19921;-63
2023/06/01 08:49:01;;;;;;;;;;;;;;;;;;5034682;28;19944;-63
2023/06/01 08:51:27;;;;;;;;;;;;;;;;;;5034746;28;19929;-62
2023/06/01 08:53:53;;;;;;;;;;;;;;;;;;5034744;28;19956;-62
2023/06/01 08:56:19;;;;;;;;;;;;;;;;;;5034562;28;19971;-63
2023/06/01 08:58:45;;;;;;;;;;;;;;;;;;5016259;28;20480;-63
2023/06/01 09:01:11;;;;;;;;;;;;;;;;;;5016524;28;19924;-61
2023/06/01 09:03:36;;;;;;;;;;;;;;;;;;5016445;28;19925;-62
2023/06/01 09:06:03;;;;;;;;;;;;;;;;;;5016150;28;19929;-62
2023/06/01 09:08:29;;;;;;;;;;;;;;;;;;5034239;28;20456;-64
2023/06/01 09:10:55;;;;;;;;;;;;;;;;;;5032870;28;19925;-63
2023/06/01 09:13:21;;;;;;;;;;;;;;;;;;5016595;28;19924;-63
2023/06/01 09:15:47;;;;;;;;;;;;;;;;;;5034366;28;20370;-63
2023/06/01 09:18:13;;;;;;;;;;;;;;;;;;5016197;28;19932;-64
2023/06/01 09:20:39;;;;;;;;;;;;;;;;;;5034322;28;20036;-65
2023/06/01 09:23:05;;;;;;;;;;;;;;;;;;5034210;28;19961;-65
2023/06/01 09:25:31;;;;;;;;;;;;;;;;;;5016370;28;19960;-65
2023/06/01 09:27:57;;;;;;;;;;;;;;;;;;5034125;28;19925;-65
2023/06/01 09:30:26;;;;;;;;;;;;;;;;;;5033864;28;19925;-65
2023/06/01 09:32:53;;;;;;;;;;;;;;;;;;5016443;28;20285;-65
2023/06/01 09:35:19;;;;;;;;;;;;;;;;;;5033731;28;19932;-65
2023/06/01 09:37:45;;;;;;;;;;;;;;;;;;5033957;28;19921;-65
2023/06/01 09:40:11;;;;;;;;;;;;;;;;;;5015890;28;20644;-65
2023/06/01 09:42:37;;;;;;;;;;;;;;;;;;5033832;28;19932;-65
2023/06/01 09:45:03;;;;;;;;;;;;;;;;;;5015895;28;19925;-63
2023/06/01 09:47:29;;;;;;;;;;;;;;;;;;5033714;28;19921;-64
2023/06/01 09:49:58;;;;;;;;;;;;;;;;;;5040682;22;19932;-62
2023/06/01 09:52:24;;;;;;;;;;;;;;;;;;5071425;28;19933;-62
2023/06/01 09:54:50;;;;;;;;;;;;;;;;;;5073576;28;19973;-61
2023/06/01 09:57:16;;;;;;;;;;;;;;;;;;5038636;28;19935;-61
2023/06/01 09:59:42;;;;;;;;;;;;;;;;;;5038365;28;19924;-61
2023/06/01 10:02:08;;;;;;;;;;;;;;;;;;5073232;28;20007;-59
2023/06/01 10:04:34;;;;;;;;;;;;;;;;;;5073395;28;19996;-60
2023/06/01 10:07:00;;;;;;;;;;;;;;;;;;5073139;28;19998;-60
2023/06/01 10:09:26;;;;;;;;;;;;;;;;;;5073013;28;19976;-60
2023/06/01 10:11:55;;;;;;;;;;;;;;;;;;5072767;28;20365;-60
2023/06/01 10:14:21;;;;;;;;;;;;;;;;;;5073084;28;19921;-60
2023/06/01 10:16:47;;;;;;;;;;;;;;;;;;5054149;28;19931;-60
2023/06/01 10:19:13;;;;;;;;;;;;;;;;;;5072436;28;19921;-60
2023/06/01 10:21:42;;;;;;;;;;;;;;;;;;5071909;28;19924;-60
2023/06/01 10:24:08;;;;;;;;;;;;;;;;;;5072478;28;20350;-61
2023/06/01 10:26:34;;;;;;;;;;;;;;;;;;5072673;28;20003;-61
2023/06/01 10:29:00;;;;;;;;;;;;;;;;;;5072646;28;20335;-61
2023/06/01 10:31:26;;;;;;;;;;;;;;;;;;5072449;28;19920;-61
2023/06/01 10:33:55;;;;;;;;;;;;;;;;;;5072955;28;19924;-61
2023/06/01 10:36:21;;;;;;;;;;;;;;;;;;5072792;28;19925;-60
2023/06/01 10:38:47;;;;;;;;;;;;;;;;;;5072401;28;19920;-60
2023/06/01 10:41:13;;;;;;;;;;;;;;;;;;5072513;28;19933;-60
2023/06/01 10:43:39;;;;;;;;;;;;;;;;;;5072523;28;19925;-60
2023/06/01 10:46:05;;;;;;;;;;;;;;;;;;5072489;28;19928;-60
2023/06/01 10:48:31;;;;;;;;;;;;;;;;;;5072515;28;20454;-60
2023/06/01 10:50:56;;;;;;;;;;;;;;;;;;5072224;28;19921;-60
2023/06/01 10:53:22;;;;;;;;;;;;;;;;;;5072122;28;19951;-61
2023/06/01 10:55:48;;;;;;;;;;;;;;;;;;5072287;28;19920;-61
2023/06/01 10:58:14;;;;;;;;;;;;;;;;;;5072187;28;19993;-61
2023/06/01 11:00:42;;;;;;;;;;;;;;;;;;5071733;28;21273;-60
2023/06/01 11:03:08;;;;;;;;;;;;;;;;;;5072385;28;20030;-60
2023/06/01 11:05:34;;;;;;;;;;;;;;;;;;5072269;28;20400;-61
2023/06/01 11:08:00;;;;;;;;;;;;;;;;;;5071889;28;19929;-60
2023/06/01 11:10:26;;;;;;;;;;;;;;;;;;5072065;28;19920;-61
2023/06/01 11:12:55;;;;;;;;;;;;;;;;;;5071909;28;19921;-61
2023/06/01 11:15:21;;;;;;;;;;;;;;;;;;5054087;28;19963;-60
2023/06/01 11:17:47;;;;;;;;;;;;;;;;;;5072100;28;20266;-61
2023/06/01 11:20:13;;;;;;;;;;;;;;;;;;5072058;28;19925;-61
2023/06/01 11:22:39;;;;;;;;;;;;;;;;;;5053952;28;19967;-61
2023/06/01 11:25:06;;;;;;;;;;;;;;;;;;5054003;28;19964;-61
2023/06/01 11:27:32;;;;;;;;;;;;;;;;;;5071630;28;20007;-61
2023/06/01 11:29:58;;;;;;;;;;;;;;;;;;5054019;28;20012;-61
2023/06/01 11:32:24;;;;;;;;;;;;;;;;;;5071276;28;20431;-61
2023/06/01 11:34:51;;;;;;;;;;;;;;;;;;5070907;28;19920;-59
2023/06/01 11:37:17;;;;;;;;;;;;;;;;;;5071584;28;20370;-60
2023/06/01 11:39:44;;;;;;;;;;;;;;;;;;5071331;28;19925;-60
2023/06/01 11:42:11;;;;;;;;;;;;;;;;;;5071314;28;20393;-60
2023/06/01 11:44:37;;;;;;;;;;;;;;;;;;5071197;28;20000;-60
2023/06/01 11:47:04;;;;;;;;;;;;;;;;;;5071357;28;20387;-60
2023/06/01 11:49:30;;;;;;;;;;;;;;;;;;5071337;28;20369;-60
2023/06/01 11:51:56;;;;;;;;;;;;;;;;;;5071276;28;19932;-60
2023/06/01 11:54:22;;;;;;;;;;;;;;;;;;5071301;28;19929;-60
2023/06/01 11:56:48;;;;;;;;;;;;;;;;;;5071567;28;19928;-60
2023/06/01 11:59:14;;;;;;;;;;;;;;;;;;5071637;28;20011;-61
2023/06/01 12:01:40;;;;;;;;;;;;;;;;;;5071772;28;20301;-60
2023/06/01 12:04:07;;;;;;;;;;;;;;;;;;5071602;28;19924;-60
2023/06/01 12:06:33;;;;;;;;;;;;;;;;;;5071522;28;19925;-61
2023/06/01 12:08:59;;;;;;;;;;;;;;;;;;5071586;28;19920;-60
2023/06/01 12:11:28;;;;;;;;;;;;;;;;;;5071685;28;20308;-60
2023/06/01 12:13:54;;;;;;;;;;;;;;;;;;5071615;28;19924;-60
2023/06/01 12:16:20;;;;;;;;;;;;;;;;;;5071646;28;19999;-60
2023/06/01 12:18:46;;;;;;;;;;;;;;;;;;5070974;28;20036;-60
2023/06/01 12:21:12;;;;;;;;;;;;;;;;;;5071363;28;19920;-60
2023/06/01 12:23:38;;;;;;;;;;;;;;;;;;5071216;28;20442;-60
2023/06/01 12:26:04;;;;;;;;;;;;;;;;;;5070948;28;20031;-60
2023/06/01 12:28:35;;;;;;;;;;;;;;;;;;5052862;28;19927;-60
2023/06/01 12:31:01;;;;;;;;;;;;;;;;;;5071244;28;19931;-60
2023/06/01 12:33:27;;;;;;;;;;;;;;;;;;5071122;28;19974;-60
2023/06/01 12:35:53;;;;;;;;;;;;;;;;;;5071201;28;19928;-60
2023/06/01 12:38:20;;;;;;;;;;;;;;;;;;5053108;28;20270;-60
2023/06/01 12:40:47;;;;;;;;;;;;;;;;;;5071272;28;19928;-60
2023/06/01 12:43:13;;;;;;;;;;;;;;;;;;5071202;28;20463;-61
2023/06/01 12:45:39;;;;;;;;;;;;;;;;;;5073668;28;19928;-61
2023/06/01 12:48:05;;;;;;;;;;;;;;;;;;5074740;28;20330;-61
2023/06/01 12:50:31;;;;;;;;;;;;;;;;;;5074437;28;20015;-59
2023/06/01 12:52:57;;;;;;;;;;;;;;;;;;5074786;28;19920;-59
2023/06/01 12:55:23;;;;;;;;;;;;;;;;;;5074717;28;20297;-60
2023/06/01 12:57:48;;;;;;;;;;;;;;;;;;5074739;28;20354;-60
2023/06/01 13:00:14;;;;;;;;;;;;;;;;;;5074553;28;19935;-60
2023/06/01 13:02:40;;;;;;;;;;;;;;;;;;5074476;28;19920;-60
2023/06/01 13:05:07;;;;;;;;;;;;;;;;;;5056570;28;19950;-60
2023/06/01 13:07:33;;;;;;;;;;;;;;;;;;5074171;28;20346;-60
2023/06/01 13:10:00;;;;;;;;;;;;;;;;;;5074327;28;19927;-60
2023/06/01 13:12:27;;;;;;;;;;;;;;;;;;5074451;28;19925;-60
2023/06/01 13:14:53;;;;;;;;;;;;;;;;;;5074362;28;19920;-60
2023/06/01 13:17:19;;;;;;;;;;;;;;;;;;5074292;28;20333;-59
2023/06/01 13:19:45;;;;;;;;;;;;;;;;;;5074192;28;19951;-60
2023/06/01 13:22:11;;;;;;;;;;;;;;;;;;5074161;28;20282;-60
2023/06/01 13:24:37;;;;;;;;;;;;;;;;;;5073868;28;19925;-60
2023/06/01 13:27:04;;;;;;;;;;;;;;;;;;5074207;28;19924;-60
2023/06/01 13:29:30;;;;;;;;;;;;;;;;;;5074072;28;19921;-60
2023/06/01 13:31:56;;;;;;;;;;;;;;;;;;5056245;28;19989;-60
2023/06/01 13:34:22;;;;;;;;;;;;;;;;;;5073780;28;20421;-60
2023/06/01 13:36:49;;;;;;;;;;;;;;;;;;5073689;28;19927;-60
2023/06/01 13:39:15;;;;;;;;;;;;;;;;;;5055726;28;19928;-60
2023/06/01 13:41:41;;;;;;;;;;;;;;;;;;5073600;28;20417;-60
2023/06/01 13:44:07;;;;;;;;;;;;;;;;;;5074033;28;19946;-60
2023/06/01 13:46:33;;;;;;;;;;;;;;;;;;5073778;28;19924;-60
2023/06/01 13:48:59;;;;;;;;;;;;;;;;;;5073765;28;20428;-60
2023/06/01 13:51:25;;;;;;;;;;;;;;;;;;5073061;28;19924;-60
2023/06/01 13:53:51;;;;;;;;;;;;;;;;;;5055387;28;19920;-60
2023/06/01 13:56:17;;;;;;;;;;;;;;;;;;5072681;28;19924;-60
2023/06/01 13:58:43;;;;;;;;;;;;;;;;;;5073398;28;19928;-61
2023/06/01 14:01:09;;;;;;;;;;;;;;;;;;5073346;28;20397;-59
2023/06/01 14:03:35;;;;;;;;;;;;;;;;;;5073219;28;20439;-60
2023/06/01 14:06:01;;;;;;;;;;;;;;;;;;5055038;28;19921;-60
2023/06/01 14:08:27;;;;;;;;;;;;;;;;;;5073242;28;19967;-61
2023/06/01 14:10:53;;;;;;;;;;;;;;;;;;5073163;28;20282;-61
2023/06/01 14:13:19;;;;;;;;;;;;;;;;;;5073192;28;19924;-61
2023/06/01 14:15:45;;;;;;;;;;;;;;;;;;5072970;28;19943;-61
2023/06/01 14:18:11;;;;;;;;;;;;;;;;;;5072956;28;19928;-60
2023/06/01 14:20:37;;;;;;;;;;;;;;;;;;5072746;28;19920;-60
2023/06/01 14:23:03;;;;;;;;;;;;;;;;;;5073020;28;19924;-60
2023/06/01 14:25:29;;;;;;;;;;;;;;;;;;5054794;28;20250;-61
2023/06/01 14:27:55;;;;;;;;;;;;;;;;;;5073022;28;19921;-61
2023/06/01 14:30:21;;;;;;;;;;;;;;;;;;5072962;28;20411;-61
2023/06/01 14:32:47;;;;;;;;;;;;;;;;;;5072540;28;19920;-61
2023/06/01 14:35:15;;;;;;;;;;;;;;;;;;5072795;28;19927;-61
2023/06/01 14:37:41;;;;;;;;;;;;;;;;;;5072699;28;19927;-61
2023/06/01 14:40:07;;;;;;;;;;;;;;;;;;5054865;28;19928;-61
2023/06/01 14:42:33;;;;;;;;;;;;;;;;;;5072529;28;20320;-61
2023/06/01 14:44:59;;;;;;;;;;;;;;;;;;5072690;28;19920;-61
2023/06/01 14:47:25;;;;;;;;;;;;;;;;;;5054285;28;19927;-61
2023/06/01 14:49:52;;;;;;;;;;;;;;;;;;5054337;28;19928;-61
2023/06/01 14:52:18;;;;;;;;;;;;;;;;;;5071926;28;20366;-61
2023/06/01 14:54:44;;;;;;;;;;;;;;;;;;5072418;28;20015;-61
2023/06/01 14:57:09;;;;;;;;;;;;;;;;;;5072360;28;19928;-61
2023/06/01 14:59:36;;;;;;;;;;;;;;;;;;5072199;28;19925;-61
2023/06/01 15:02:03;;;;;;;;;;;;;;;;;;5072038;28;19946;-61
2023/06/01 15:04:28;;;;;;;;;;;;;;;;;;5072344;28;19973;-61
2023/06/01 15:06:54;;;;;;;;;;;;;;;;;;5053917;28;20011;-62
2023/06/01 15:09:20;;;;;;;;;;;;;;;;;;5072105;28;19942;-61
2023/06/01 15:11:46;;;;;;;;;;;;;;;;;;5072170;28;19933;-61
2023/06/01 15:14:12;;;;;;;;;;;;;;;;;;5053856;28;20277;-61
2023/06/01 15:16:38;;;;;;;;;;;;;;;;;;5071682;28;19974;-61
2023/06/01 15:19:04;;;;;;;;;;;;;;;;;;5053902;28;19939;-61
2023/06/01 15:21:31;;;;;;;;;;;;;;;;;;5072089;28;20372;-61
2023/06/01 15:23:56;;;;;;;;;;;;;;;;;;5072090;28;20006;-61
2023/06/01 15:26:22;;;;;;;;;;;;;;;;;;5072001;28;20011;-61
2023/06/01 15:28:48;;;;;;;;;;;;;;;;;;5071808;28;19925;-61
2023/06/01 15:31:14;;;;;;;;;;;;;;;;;;5071889;28;19932;-65
2023/06/01 15:33:40;;;;;;;;;;;;;;;;;;5071949;28;19925;-64
2023/06/01 15:36:06;;;;;;;;;;;;;;;;;;5071990;28;19921;-64
2023/06/01 15:38:32;;;;;;;;;;;;;;;;;;5071576;28;19929;-64
2023/06/01 15:40:58;;;;;;;;;;;;;;;;;;5071640;28;19975;-64
2023/06/01 15:43:24;;;;;;;;;;;;;;;;;;5071523;28;19924;-64
2023/06/01 15:45:50;;;;;;;;;;;;;;;;;;5071832;28;19989;-65
2023/06/01 15:48:15;;;;;;;;;;;;;;;;;;5071762;28;19927;-65
2023/06/01 15:50:41;;;;;;;;;;;;;;;;;;5071545;28;19929;-64
2023/06/01 15:53:07;;;;;;;;;;;;;;;;;;5071510;28;19921;-64
2023/06/01 15:55:33;;;;;;;;;;;;;;;;;;5053684;28;20015;-64
2023/06/01 15:57:59;;;;;;;;;;;;;;;;;;5037036;28;19920;-63
2023/06/01 16:00:27;;;;;;;;;;;;;;;;;;5071561;28;19935;-64
2023/06/01 16:02:53;;;;;;;;;;;;;;;;;;5053364;28;19925;-63
2023/06/01 16:05:19;;;;;;;;;;;;;;;;;;5071669;28;20308;-65
2023/06/01 16:07:45;;;;;;;;;;;;;;;;;;5053383;28;19920;-64
2023/06/01 16:10:13;;;;;;;;;;;;;;;;;;5053504;28;19927;-64
2023/06/01 16:12:39;;;;;;;;;;;;;;;;;;5071658;28;19920;-64
2023/06/01 16:15:05;;;;;;;;;;;;;;;;;;5053400;28;19931;-64
2023/06/01 16:17:33;;;;;;;;;;;;;;;;;;5071349;28;19971;-64
2023/06/01 16:20:00;;;;;;;;;;;;;;;;;;5072950;28;20015;-64
2023/06/01 16:22:25;;;;;;;;;;;;;;;;;;5075235;28;19921;-64
2023/06/01 16:24:51;;;;;;;;;;;;;;;;;;5074865;28;19932;-64
2023/06/01 16:27:17;;;;;;;;;;;;;;;;;;5075021;28;19920;-64
2023/06/01 16:29:43;;;;;;;;;;;;;;;;;;5056814;28;19970;-64
2023/06/01 16:32:09;;;;;;;;;;;;;;;;;;5074871;28;20023;-65
2023/06/01 16:34:35;;;;;;;;;;;;;;;;;;5056663;28;19924;-65
2023/06/01 16:37:01;;;;;;;;;;;;;;;;;;5074835;28;19924;-65